Time;durP1;ratioP1;P1;durP2;ratioP2;P2;SDS_P1;SDS_P2;PMS_P1;PMS_P2;Temp;Humidity;BMP_temperature;BMP_pressure;BME280_temperature;BME280_humidity;BME280_pressure;Samples;Min_cycle;Max_cycle;Signal;HPM_P1;HPM_P2
2023/01/12 00:01:42;;;;;;;10.63;6.70;;;3.60;99.90;;;;;;5038043;28;20046;-67
2023/01/12 00:04:11;;;;;;;15.30;9.07;;;3.60;99.90;;;;;;5034025;28;20042;-67
2023/01/12 00:06:39;;;;;;;16.02;9.32;;;3.60;99.90;;;;;;5043639;28;20041;-67
2023/01/12 00:09:07;;;;;;;18.23;9.50;;;3.70;99.90;;;;;;5041355;28;20049;-67
2023/01/12 00:11:35;;;;;;;16.80;9.57;;;3.70;99.90;;;;;;5040281;28;20079;-67
2023/01/12 00:14:03;;;;;;;16.65;10.00;;;3.70;99.90;;;;;;5025065;28;20049;-67
2023/01/12 00:19:11;;;;;;;15.95;9.10;;;3.60;99.90;;;;;;5032685;28;20107;-67
2023/01/12 00:24:29;;;;;;;15.45;9.05;;;3.70;99.90;;;;;;5048526;28;20414;-67
2023/01/12 00:26:58;;;;;;;15.38;8.27;;;3.60;99.90;;;;;;5039397;28;20061;-67
2023/01/12 00:29:26;;;;;;;25.10;13.57;;;3.50;99.90;;;;;;5026881;28;20099;-67
2023/01/12 00:31:54;;;;;;;24.48;12.05;;;3.50;99.90;;;;;;5019375;28;20045;-66
2023/01/12 00:34:22;;;;;;;20.52;11.15;;;3.40;99.90;;;;;;5041526;28;20579;-67
2023/01/12 00:36:49;;;;;;;22.75;11.48;;;3.40;99.90;;;;;;5039080;28;20037;-67
2023/01/12 00:39:16;;;;;;;21.05;10.98;;;3.40;99.90;;;;;;5045969;28;20098;-67
2023/01/12 00:47:16;;;;;;;25.13;12.40;;;3.20;99.90;;;;;;5038587;28;20042;-67
2023/01/12 00:49:43;;;;;;;18.70;10.70;;;3.10;99.90;;;;;;5041863;28;20095;-67
2023/01/12 00:52:12;;;;;;;17.75;10.07;;;3.10;99.90;;;;;;5037850;28;20053;-67
2023/01/12 00:54:55;;;;;;;19.08;9.50;;;3.10;99.90;;;;;;5041928;28;20045;-67
2023/01/12 00:57:22;;;;;;;15.15;8.35;;;3.00;99.90;;;;;;5038644;28;20123;-67
2023/01/12 00:59:48;;;;;;;15.68;8.98;;;3.00;99.90;;;;;;5030945;28;20121;-67
2023/01/12 01:02:15;;;;;;;11.13;6.47;;;3.00;99.90;;;;;;5046399;28;20045;-67
2023/01/12 01:04:42;;;;;;;17.05;8.75;;;2.90;99.90;;;;;;5027585;28;20072;-67
2023/01/12 01:07:09;;;;;;;16.88;9.43;;;2.90;99.90;;;;;;5043212;28;20379;-67
2023/01/12 01:09:35;;;;;;;12.48;6.63;;;2.90;99.90;;;;;;5040379;28;20041;-67
2023/01/12 01:12:02;;;;;;;11.23;6.75;;;2.80;99.90;;;;;;5043143;28;20041;-67
2023/01/12 01:14:29;;;;;;;15.85;7.53;;;2.70;99.90;;;;;;5035114;28;20042;-67
2023/01/12 01:16:56;;;;;;;21.80;10.48;;;2.70;99.90;;;;;;5037164;28;20084;-67
2023/01/12 01:19:22;;;;;;;13.40;8.50;;;2.70;99.90;;;;;;5046648;22;20041;-67
2023/01/12 01:21:49;;;;;;;22.50;11.30;;;2.60;99.90;;;;;;5044931;28;20399;-67
2023/01/12 01:24:16;;;;;;;22.80;12.05;;;2.50;99.90;;;;;;5044991;28;20100;-67
2023/01/12 01:26:43;;;;;;;20.83;11.13;;;2.50;99.90;;;;;;5043820;28;20486;-67
2023/01/12 01:29:10;;;;;;;21.75;10.45;;;2.50;99.90;;;;;;5050975;28;20041;-67
2023/01/12 01:31:36;;;;;;;20.83;11.10;;;2.30;99.90;;;;;;5052040;28;20052;-67
2023/01/12 01:34:03;;;;;;;19.83;10.35;;;2.30;99.90;;;;;;5053173;28;20045;-67
2023/01/12 01:36:30;;;;;;;23.42;11.35;;;2.30;99.90;;;;;;5040313;28;20064;-67
2023/01/12 01:38:57;;;;;;;44.65;12.38;;;2.30;99.90;;;;;;5033287;28;20104;-67
2023/01/12 01:41:27;;;;;;;12.38;6.82;;;2.30;99.90;;;;;;5032881;28;20453;-67
2023/01/12 01:44:02;;;;;;;18.63;9.15;;;2.30;99.90;;;;;;5043365;28;20057;-67
2023/01/12 01:46:38;;;;;;;24.13;10.05;;;2.30;99.90;;;;;;5033795;28;20045;-67
2023/01/12 01:49:31;;;;;;;19.52;9.70;;;2.20;99.90;;;;;;5032724;28;20120;-67
2023/01/12 01:52:32;;;;;;;17.27;9.05;;;2.20;99.90;;;;;;5037743;28;20040;-67
2023/01/12 01:55:05;;;;;;;188.98;19.77;;;2.20;99.90;;;;;;5037098;28;20111;-67
2023/01/12 01:57:45;;;;;;;47.75;12.35;;;2.20;99.90;;;;;;5033021;28;20045;-66
2023/01/12 02:00:12;;;;;;;250.32;21.48;;;2.10;99.90;;;;;;5032310;28;20107;-67
2023/01/12 02:02:40;;;;;;;;;;;2.10;99.90;;;;;;5033171;28;20041;-67
2023/01/12 02:05:08;;;;;;;77.78;13.32;;;2.00;99.90;;;;;;5039833;28;20385;-67
2023/01/12 02:07:35;;;;;;;65.50;11.90;;;2.10;99.90;;;;;;5033147;28;20107;-67
2023/01/12 02:10:02;;;;;;;63.28;11.73;;;2.10;99.90;;;;;;5032619;28;20179;-67
2023/01/12 02:18:12;;;;;;;55.70;11.75;;;2.30;99.90;;;;;;5032541;28;20073;-67
2023/01/12 02:21:03;;;;;;;23.65;10.30;;;2.30;99.90;;;;;;5036168;28;20494;-67
2023/01/12 02:23:55;;;;;;;72.15;11.52;;;2.20;99.90;;;;;;5031546;28;20038;-67
2023/01/12 02:26:56;;;;;;;43.75;12.48;;;2.20;99.90;;;;;;5034402;28;20166;-67
2023/01/12 02:29:34;;;;;;;49.97;11.60;;;2.10;99.90;;;;;;5035693;28;20037;-67
2023/01/12 02:32:25;;;;;;;32.10;10.20;;;2.00;99.90;;;;;;5052020;28;20628;-67
2023/01/12 02:35:17;;;;;;;21.92;10.10;;;2.00;99.90;;;;;;5051984;28;20069;-67
2023/01/12 02:37:48;;;;;;;16.17;9.35;;;1.90;99.90;;;;;;5045325;28;20045;-67
2023/01/12 02:40:24;;;;;;;18.00;9.43;;;1.90;99.90;;;;;;5042011;28;20050;-67
2023/01/12 02:43:02;;;;;;;16.30;8.38;;;1.80;99.90;;;;;;5031598;28;20041;-67
2023/01/12 02:45:54;;;;;;;19.50;8.57;;;1.80;99.90;;;;;;5038272;28;20036;-67
2023/01/12 02:48:29;;;;;;;15.20;8.65;;;1.70;99.90;;;;;;5032233;28;20429;-67
2023/01/12 02:51:12;;;;;;;19.83;9.23;;;1.80;99.90;;;;;;5045915;28;20049;-67
2023/01/12 02:54:13;;;;;;;18.98;10.88;;;1.90;99.90;;;;;;5051823;28;20045;-67
2023/01/12 02:56:49;;;;;;;26.00;14.00;;;2.10;99.90;;;;;;5031923;28;20522;-67
2023/01/12 02:59:49;;;;;;;25.88;14.23;;;2.30;99.90;;;;;;5032048;28;20053;-67
2023/01/12 03:02:20;;;;;;;23.77;12.77;;;2.40;99.90;;;;;;5029262;28;20060;-67
2023/01/12 03:04:47;;;;;;;25.38;11.68;;;2.60;99.90;;;;;;5033964;28;20042;-67
2023/01/12 03:07:13;;;;;;;24.27;12.93;;;2.60;99.90;;;;;;5040520;28;20037;-67
2023/01/12 03:09:44;;;;;;;27.88;12.63;;;2.60;99.90;;;;;;5031752;28;20068;-69
2023/01/12 03:12:15;;;;;;;24.02;13.15;;;2.60;99.90;;;;;;5031076;28;20092;-67
2023/01/12 03:14:47;;;;;;;24.08;12.52;;;2.70;99.90;;;;;;5031752;28;20057;-67
2023/01/12 03:17:26;;;;;;;23.67;13.63;;;2.70;99.90;;;;;;5031672;28;20046;-67
2023/01/12 03:19:55;;;;;;;24.77;13.48;;;2.80;99.90;;;;;;5030051;28;20079;-67
2023/01/12 03:22:23;;;;;;;22.17;12.70;;;2.80;99.90;;;;;;5031070;28;20134;-67
2023/01/12 03:24:56;;;;;;;22.23;11.45;;;2.80;99.90;;;;;;5041788;28;20033;-67
2023/01/12 03:27:36;;;;;;;25.50;12.90;;;2.90;99.90;;;;;;5042967;28;20571;-67
2023/01/12 03:30:19;;;;;;;21.23;12.80;;;2.90;99.90;;;;;;5050592;28;20041;-67
2023/01/12 03:32:48;;;;;;;23.13;12.15;;;2.90;99.90;;;;;;5037021;28;20445;-67
2023/01/12 03:35:15;;;;;;;24.98;13.25;;;2.90;99.90;;;;;;5031165;28;20096;-67
2023/01/12 03:37:45;;;;;;;;;;;2.90;99.90;;;;;;5030483;28;20498;-67
2023/01/12 03:40:19;;;;;;;29.15;13.68;;;2.90;99.90;;;;;;5030971;28;19925;-67
2023/01/12 03:42:56;;;;;;;24.52;14.00;;;2.90;99.90;;;;;;5030675;28;20116;-67
2023/01/12 03:45:30;;;;;;;28.90;13.82;;;2.90;99.90;;;;;;5039778;28;20049;-67
2023/01/12 03:48:09;;;;;;;26.30;12.77;;;2.90;99.90;;;;;;5045866;28;20103;-67
2023/01/12 03:50:47;;;;;;;28.30;13.15;;;2.90;99.90;;;;;;5038440;28;20041;-67
2023/01/12 03:53:18;;;;;;;25.95;13.38;;;2.90;99.90;;;;;;5030697;28;20042;-67
2023/01/12 03:55:48;;;;;;;22.85;12.73;;;3.00;99.90;;;;;;5031360;28;20064;-67
2023/01/12 03:58:16;;;;;;;24.35;13.55;;;3.00;99.90;;;;;;5042166;28;20054;-67
2023/01/12 04:00:43;;;;;;;23.23;12.40;;;3.00;99.90;;;;;;5031457;28;20045;-67
2023/01/12 04:03:13;;;;;;;26.55;13.75;;;3.00;99.90;;;;;;5030646;28;20113;-67
2023/01/12 04:05:41;;;;;;;23.85;12.73;;;3.00;99.90;;;;;;5034025;28;20029;-67
2023/01/12 04:08:09;;;;;;;25.63;13.02;;;3.10;99.90;;;;;;5039972;28;20068;-67
2023/01/12 04:10:35;;;;;;;26.30;13.65;;;3.10;99.90;;;;;;5040232;28;20045;-67
2023/01/12 04:13:02;;;;;;;27.17;13.40;;;3.10;99.90;;;;;;5046908;28;20111;-67
2023/01/12 04:15:29;;;;;;;28.85;13.23;;;3.10;99.90;;;;;;5047571;28;20041;-67
2023/01/12 04:17:56;;;;;;;27.70;14.55;;;3.10;99.90;;;;;;5065048;22;21223;-71
2023/01/12 04:20:22;;;;;;;30.60;15.65;;;3.10;99.90;;;;;;5043462;28;20159;-71
2023/01/12 04:22:49;;;;;;;28.58;15.75;;;3.10;99.90;;;;;;5042041;28;20390;-71
2023/01/12 04:25:19;;;;;;;30.08;15.75;;;3.20;99.90;;;;;;5032629;28;20041;-70
2023/01/12 04:27:48;;;;;;;31.77;14.75;;;3.20;99.90;;;;;;5033025;28;20620;-71
2023/01/12 04:30:17;;;;;;;30.45;15.48;;;3.20;99.90;;;;;;5034150;28;20120;-71
2023/01/12 04:32:45;;;;;;;23.13;12.82;;;3.20;99.90;;;;;;5035650;28;20095;-71
2023/01/12 04:35:12;;;;;;;16.02;8.95;;;3.20;99.90;;;;;;5032682;28;20091;-70
2023/01/12 04:37:39;;;;;;;14.82;8.25;;;3.20;99.90;;;;;;5040858;28;20037;-71
2023/01/12 04:40:08;;;;;;;12.88;6.75;;;3.20;99.90;;;;;;5017185;28;20387;-70
2023/01/12 04:45:20;;;;;;;11.30;4.72;;;3.10;99.90;;;;;;5050891;28;20095;-71
2023/01/12 04:47:46;;;;;;;6.50;3.53;;;3.10;99.90;;;;;;5040198;28;20042;-71
2023/01/12 04:50:13;;;;;;;6.95;3.47;;;3.00;99.90;;;;;;5051605;28;20037;-70
2023/01/12 04:52:40;;;;;;;12.15;5.78;;;3.00;99.90;;;;;;5053940;28;20044;-70
2023/01/12 04:55:07;;;;;;;7.32;4.70;;;2.90;99.90;;;;;;5048699;28;20037;-71
2023/01/12 04:57:34;;;;;;;9.48;5.88;;;3.00;99.90;;;;;;5043913;28;20037;-70
2023/01/12 05:00:01;;;;;;;9.68;5.70;;;3.00;99.90;;;;;;5049551;28;20502;-71
2023/01/12 05:02:28;;;;;;;9.73;5.15;;;3.00;99.90;;;;;;5039294;28;20033;-70
2023/01/12 05:04:54;;;;;;;17.58;8.55;;;3.00;99.90;;;;;;5034117;28;20520;-70
2023/01/12 05:07:21;;;;;;;18.75;10.15;;;3.00;99.90;;;;;;5053171;28;20087;-71
2023/01/12 05:12:33;;;;;;;16.95;7.88;;;2.90;99.90;;;;;;5051514;28;20094;-71
2023/01/12 05:15:00;;;;;;;7.38;3.85;;;2.90;99.90;;;;;;5053538;28;20106;-70
2023/01/12 05:17:27;;;;;;;13.77;6.55;;;2.90;99.90;;;;;;5051114;28;20052;-70
2023/01/12 05:19:54;;;;;;;15.55;6.05;;;2.90;99.90;;;;;;5042221;28;20087;-71
2023/01/12 05:22:20;;;;;;;10.02;5.40;;;3.00;99.90;;;;;;5052143;28;20490;-71
2023/01/12 05:24:47;;;;;;;10.32;6.05;;;3.00;99.90;;;;;;5045960;28;20459;-71
2023/01/12 05:27:14;;;;;;;7.75;3.50;;;3.00;99.90;;;;;;5041738;28;20106;-71
2023/01/12 05:29:40;;;;;;;11.57;4.18;;;2.90;99.90;;;;;;5037234;28;20041;-70
2023/01/12 05:32:07;;;;;;;11.35;5.18;;;2.90;99.90;;;;;;5046030;28;20037;-71
2023/01/12 05:34:34;;;;;;;7.35;4.30;;;2.90;99.90;;;;;;5050170;28;20456;-70
2023/01/12 05:37:01;;;;;;;10.20;5.18;;;3.00;99.90;;;;;;5049769;28;20037;-70
2023/01/12 05:39:28;;;;;;;;;;;3.00;99.90;;;;;;5052030;28;20044;-70
2023/01/12 05:44:40;;;;;;;10.73;5.00;;;2.90;99.90;;;;;;5048898;28;20052;-70
2023/01/12 05:47:06;;;;;;;9.25;4.75;;;2.90;99.90;;;;;;5046164;28;20551;-70
2023/01/12 05:49:33;;;;;;;13.63;5.32;;;2.90;99.90;;;;;;5034638;28;20122;-70
2023/01/12 05:52:00;;;;;;;11.18;5.38;;;2.90;99.90;;;;;;5053086;28;20037;-70
2023/01/12 05:54:26;;;;;;;11.98;5.88;;;2.90;99.90;;;;;;5038091;28;20099;-71
2023/01/12 05:56:54;;;;;;;9.20;4.35;;;3.00;99.90;;;;;;5033345;28;20065;-71
2023/01/12 05:59:21;;;;;;;13.43;6.70;;;3.00;99.90;;;;;;5032793;28;20476;-71
2023/01/12 06:01:48;;;;;;;12.23;5.72;;;3.10;99.90;;;;;;5032335;28;20556;-71
2023/01/12 06:04:15;;;;;;;10.82;5.35;;;3.10;99.90;;;;;;5032891;28;20045;-70
2023/01/12 06:06:42;;;;;;;11.40;5.45;;;3.00;99.90;;;;;;5044565;28;20053;-70
2023/01/12 06:09:09;;;;;;;19.85;9.20;;;3.10;99.90;;;;;;5050366;28;20110;-71
2023/01/12 06:14:21;;;;;;;30.70;15.38;;;3.10;99.90;;;;;;5043321;28;20041;-70
2023/01/12 06:16:47;;;;;;;22.80;10.85;;;3.10;99.90;;;;;;5051328;28;20493;-71
2023/01/12 06:19:14;;;;;;;25.98;11.75;;;3.20;99.90;;;;;;5034552;28;20072;-71
2023/01/12 06:21:41;;;;;;;26.23;12.70;;;3.20;99.90;;;;;;5014565;28;20068;-71
2023/01/12 06:24:08;;;;;;;20.92;11.18;;;3.30;99.90;;;;;;5030694;28;20042;-70
2023/01/12 06:26:34;;;;;;;23.33;10.85;;;3.30;99.90;;;;;;5030722;28;20052;-71
2023/01/12 06:29:04;;;;;;;18.63;9.40;;;3.30;99.90;;;;;;5030699;28;20449;-71
2023/01/12 06:31:31;;;;;;;13.27;5.50;;;3.30;99.90;;;;;;5030223;28;20044;-71
2023/01/12 06:33:58;;;;;;;10.82;5.72;;;3.20;99.90;;;;;;5030552;28;20041;-71
2023/01/12 06:36:24;;;;;;;6.78;3.20;;;3.20;99.90;;;;;;5029655;28;20533;-71
2023/01/12 06:38:51;;;;;;;13.98;5.78;;;3.10;99.90;;;;;;5031908;28;20294;-71
2023/01/12 06:44:03;;;;;;;10.93;5.57;;;3.10;99.90;;;;;;5033742;28;20037;-70
2023/01/12 06:46:30;;;;;;;10.82;5.45;;;3.10;99.90;;;;;;5032277;28;20048;-71
2023/01/12 06:48:57;;;;;;;7.82;4.28;;;3.10;99.90;;;;;;5031960;28;20038;-70
2023/01/12 06:51:24;;;;;;;;;;;3.20;99.90;;;;;;5037071;28;20457;-70
2023/01/12 06:53:51;;;;;;;15.90;7.85;;;3.20;99.90;;;;;;5026537;28;19951;-70
2023/01/12 06:56:18;;;;;;;14.85;7.78;;;3.20;99.90;;;;;;5030233;28;20049;-71
2023/01/12 06:58:45;;;;;;;15.98;7.50;;;3.20;99.90;;;;;;5029723;28;20033;-70
2023/01/12 07:01:15;;;;;;;13.38;6.93;;;3.10;99.90;;;;;;5031329;28;20049;-71
2023/01/12 07:03:42;;;;;;;14.30;7.97;;;3.10;99.90;;;;;;5044018;28;20475;-71
2023/01/12 07:06:09;;;;;;;17.17;8.85;;;3.10;99.90;;;;;;5030886;28;20030;-70
2023/01/12 07:08:36;;;;;;;18.98;8.68;;;3.10;99.90;;;;;;5030602;28;20046;-70
2023/01/12 07:11:06;;;;;;;21.50;10.35;;;3.10;99.90;;;;;;5031893;28;20046;-70
2023/01/12 07:13:34;;;;;;;17.65;7.68;;;3.20;99.90;;;;;;5035496;28;20112;-70
2023/01/12 07:16:01;;;;;;;16.17;8.45;;;3.20;99.90;;;;;;5043597;28;20452;-70
2023/01/12 07:18:28;;;;;;;;;;;3.20;99.90;;;;;;5051162;28;20490;-70
2023/01/12 07:20:55;;;;;;;19.35;8.45;;;3.20;99.90;;;;;;5035987;28;20336;-70
2023/01/12 07:23:22;;;;;;;19.63;9.15;;;3.30;99.90;;;;;;5030656;28;20049;-70
2023/01/12 07:25:49;;;;;;;20.33;9.05;;;3.30;99.90;;;;;;5031693;28;20037;-70
2023/01/12 07:28:15;;;;;;;17.40;9.63;;;3.30;99.90;;;;;;5033688;28;20088;-70
2023/01/12 07:30:42;;;;;;;12.18;6.95;;;3.30;99.90;;;;;;5031408;28;20038;-71
2023/01/12 07:33:12;;;;;;;17.65;9.75;;;3.30;99.90;;;;;;5030573;28;20060;-70
2023/01/12 07:35:39;;;;;;;17.95;9.80;;;3.30;99.90;;;;;;5031151;28;20160;-70
2023/01/12 07:38:06;;;;;;;;;;;3.30;99.90;;;;;;5031360;28;20050;-70
2023/01/12 07:40:34;;;;;;;19.95;9.95;;;3.40;99.90;;;;;;5030878;28;19921;-70
2023/01/12 07:43:05;;;;;;;25.30;11.20;;;3.40;99.90;;;;;;5030923;28;20041;-70
2023/01/12 07:45:34;;;;;;;20.50;9.98;;;3.40;99.90;;;;;;5015869;28;20051;-70
2023/01/12 07:48:01;;;;;;;21.58;10.63;;;3.40;99.90;;;;;;5047064;28;20120;-70
2023/01/12 07:50:28;;;;;;;24.25;11.20;;;3.40;99.90;;;;;;5050205;28;20067;-71
2023/01/12 07:52:59;;;;;;;23.35;11.82;;;3.40;99.90;;;;;;5050511;28;20144;-71
2023/01/12 07:55:26;;;;;;;24.95;10.45;;;3.50;99.90;;;;;;5038419;28;20037;-70
2023/01/12 07:57:57;;;;;;;22.55;11.48;;;3.40;99.90;;;;;;5031158;28;20049;-70
2023/01/12 08:00:25;;;;;;;24.85;11.43;;;3.50;99.90;;;;;;5030963;28;20072;-70
2023/01/12 08:02:52;;;;;;;;;;;3.50;99.90;;;;;;5037734;28;20459;-70
2023/01/12 08:05:21;;;;;;;21.15;10.45;;;3.60;99.90;;;;;;5036133;28;19975;-70
2023/01/12 08:07:48;;;;;;;22.48;12.35;;;3.60;99.90;;;;;;5031105;28;20037;-70
2023/01/12 08:10:15;;;;;;;25.60;11.60;;;3.60;99.90;;;;;;5031547;28;20056;-71
2023/01/12 08:12:42;;;;;;;22.98;10.90;;;3.70;99.90;;;;;;5038552;28;20103;-70
2023/01/12 08:15:09;;;;;;;24.63;11.77;;;3.80;99.90;;;;;;5037176;28;20064;-70
2023/01/12 08:17:50;;;;;;;23.02;10.68;;;3.80;99.90;;;;;;5034223;28;20038;-69
2023/01/12 08:20:26;;;;;;;20.58;10.65;;;3.80;99.90;;;;;;5035238;28;20079;-70
2023/01/12 08:22:58;;;;;;;20.13;11.02;;;3.80;99.90;;;;;;5034265;28;20048;-71
2023/01/12 08:25:31;;;;;;;21.40;9.90;;;3.80;99.90;;;;;;5034653;28;20049;-70
2023/01/12 08:28:03;;;;;;;18.95;9.73;;;3.90;99.90;;;;;;5034568;28;20049;-70
2023/01/12 08:30:30;;;;;;;21.27;10.45;;;3.90;99.90;;;;;;5047291;28;20168;-70
2023/01/12 08:32:59;;;;;;;19.52;10.60;;;3.80;99.90;;;;;;5046840;28;20065;-71
2023/01/12 08:35:28;;;;;;;20.45;10.73;;;3.80;99.90;;;;;;5054241;28;20555;-70
2023/01/12 08:37:56;;;;;;;21.05;11.57;;;3.90;99.90;;;;;;5047562;28;20111;-70
2023/01/12 08:40:23;;;;;;;21.40;10.38;;;3.90;99.90;;;;;;5041101;28;20095;-70
2023/01/12 08:42:50;;;;;;;;;;;3.90;99.90;;;;;;5048629;28;20090;-70
2023/01/12 08:45:16;;;;;;;23.95;11.32;;;3.90;99.90;;;;;;5052466;28;19970;-70
2023/01/12 08:47:44;;;;;;;22.33;11.77;;;3.80;99.90;;;;;;5034432;28;20096;-71
2023/01/12 08:50:10;;;;;;;22.02;11.88;;;3.80;99.90;;;;;;5033045;28;20033;-70
2023/01/12 08:52:37;;;;;;;24.27;11.07;;;3.90;99.90;;;;;;5033294;28;20052;-70
2023/01/12 08:55:04;;;;;;;23.67;12.00;;;3.90;99.90;;;;;;5034196;28;20041;-70
2023/01/12 08:57:31;;;;;;;25.02;12.75;;;3.90;99.90;;;;;;5034144;28;20046;-71
2023/01/12 08:59:58;;;;;;;24.05;12.43;;;4.00;99.90;;;;;;5034096;28;20053;-70
2023/01/12 09:02:25;;;;;;;19.40;10.45;;;4.10;99.90;;;;;;5034371;28;20049;-70
2023/01/12 09:04:52;;;;;;;17.42;10.20;;;4.20;99.90;;;;;;5033608;28;20034;-70
2023/01/12 09:07:19;;;;;;;19.80;10.98;;;4.40;99.90;;;;;;5033814;28;20442;-70
2023/01/12 09:09:46;;;;;;;20.13;10.52;;;4.50;99.90;;;;;;5036849;28;20056;-70
2023/01/12 09:12:13;;;;;;;15.93;9.32;;;4.70;99.90;;;;;;5035982;28;20046;-70
2023/01/12 09:14:39;;;;;;;16.08;9.63;;;4.60;99.90;;;;;;5033589;28;20108;-70
2023/01/12 09:17:06;;;;;;;17.02;9.45;;;4.60;99.90;;;;;;5034193;28;20049;-70
2023/01/12 09:19:33;;;;;;;17.60;10.27;;;4.70;99.90;;;;;;5033293;28;20053;-70
2023/01/12 09:22:00;;;;;;;21.05;10.18;;;4.70;99.90;;;;;;5031893;28;20042;-70
2023/01/12 09:24:26;;;;;;;19.48;10.07;;;4.80;99.90;;;;;;5033502;28;20502;-70
2023/01/12 09:26:53;;;;;;;15.70;9.27;;;4.90;99.90;;;;;;5034426;28;20044;-69
2023/01/12 09:29:20;;;;;;;17.63;10.55;;;4.90;99.90;;;;;;5041992;28;20410;-70
2023/01/12 09:31:47;;;;;;;16.40;9.70;;;4.90;99.90;;;;;;5047280;28;20083;-69
2023/01/12 09:34:13;;;;;;;17.45;9.20;;;5.00;99.90;;;;;;5053044;28;20041;-70
2023/01/12 09:36:41;;;;;;;15.70;9.13;;;5.00;99.90;;;;;;5053460;28;20139;-70
2023/01/12 09:39:07;;;;;;;18.23;10.50;;;4.90;99.90;;;;;;5044620;28;20052;-70
2023/01/12 09:47:35;;;;;;;12.52;7.70;;;4.80;99.90;;;;;;5036297;28;20048;-70
2023/01/12 09:50:33;;;;;;;15.07;8.85;;;5.00;99.90;;;;;;5037015;28;20449;-70
2023/01/12 09:53:20;;;;;;;15.48;9.13;;;5.10;99.90;;;;;;5032693;28;20456;-70
2023/01/12 09:55:50;;;;;;;14.50;8.75;;;4.90;99.90;;;;;;5033278;28;20103;-70
2023/01/12 09:58:48;;;;;;;14.43;8.80;;;4.80;99.90;;;;;;5026911;28;20048;-70
2023/01/12 10:01:16;;;;;;;14.50;8.93;;;4.90;99.90;;;;;;5050513;28;20049;-69
2023/01/12 10:03:57;;;;;;;13.90;8.50;;;4.90;99.90;;;;;;5037476;28;20044;-69
2023/01/12 10:06:24;;;;;;;14.65;7.93;;;4.90;99.90;;;;;;5043614;28;20045;-70
2023/01/12 10:08:55;;;;;;;14.98;9.25;;;4.90;99.90;;;;;;5037755;28;20037;-70
2023/01/12 10:11:39;;;;;;;13.45;8.07;;;4.90;99.90;;;;;;5032300;28;20042;-70
2023/01/12 10:14:12;;;;;;;15.85;8.43;;;4.90;99.90;;;;;;5032057;28;20045;-69
2023/01/12 10:17:09;;;;;;;16.38;9.38;;;4.90;99.90;;;;;;5037670;28;20085;-69
2023/01/12 10:20:01;;;;;;;14.48;7.32;;;5.10;99.90;;;;;;5063180;22;20093;-63
2023/01/12 10:22:38;;;;;;;18.05;8.88;;;5.10;99.90;;;;;;5051033;28;20044;-63
2023/01/12 10:25:33;;;;;;;15.07;8.77;;;5.00;99.90;;;;;;5052723;28;20401;-63
2023/01/12 10:28:07;;;;;;;14.63;8.90;;;5.00;99.90;;;;;;5063795;28;20441;-63
2023/01/12 10:30:36;;;;;;;10.90;6.38;;;5.10;99.90;;;;;;5072229;28;20098;-63
2023/01/12 10:33:20;;;;;;;18.35;8.35;;;4.90;99.90;;;;;;5070336;28;20098;-63
2023/01/12 10:36:05;;;;;;;12.25;7.05;;;4.90;99.90;;;;;;5062835;28;20036;-63
2023/01/12 10:38:54;;;;;;;16.67;9.38;;;4.90;99.90;;;;;;5071681;28;20114;-63
2023/01/12 10:41:26;;;;;;;19.27;9.02;;;5.00;99.90;;;;;;5070898;28;20052;-63
2023/01/12 10:43:58;;;;;;;19.15;10.55;;;5.00;99.90;;;;;;5054971;28;20463;-63
2023/01/12 10:46:31;;;;;;;17.13;9.05;;;4.90;99.90;;;;;;5054071;28;20037;-63
2023/01/12 10:49:20;;;;;;;20.02;10.35;;;5.00;99.90;;;;;;5071893;28;20063;-63
2023/01/12 10:51:48;;;;;;;15.73;8.82;;;5.00;99.90;;;;;;5071503;28;20037;-63
2023/01/12 10:54:21;;;;;;;13.80;8.43;;;5.00;99.90;;;;;;5045235;28;20099;-63
2023/01/12 10:56:56;;;;;;;15.63;8.88;;;5.10;99.90;;;;;;5071865;28;20029;-63
2023/01/12 10:59:28;;;;;;;16.10;8.70;;;5.10;99.90;;;;;;5071419;28;20072;-63
2023/01/12 11:02:12;;;;;;;13.73;8.50;;;5.00;99.90;;;;;;5071332;28;20044;-62
2023/01/12 11:04:48;;;;;;;17.10;9.73;;;4.90;99.90;;;;;;5046301;28;20044;-63
2023/01/12 11:07:21;;;;;;;15.32;8.75;;;4.90;99.90;;;;;;5071767;28;20049;-63
2023/01/12 11:09:48;;;;;;;16.75;8.80;;;5.00;99.90;;;;;;5071144;28;20109;-63
2023/01/12 11:12:30;;;;;;;14.55;8.27;;;5.10;99.90;;;;;;5071227;28;20485;-64
2023/01/12 11:15:03;;;;;;;17.67;8.32;;;5.00;99.90;;;;;;5048812;28;20316;-64
2023/01/12 11:17:55;;;;;;;14.55;8.02;;;5.00;99.90;;;;;;5071128;28;20097;-64
2023/01/12 11:20:44;;;;;;;34.40;12.68;;;4.90;99.90;;;;;;5071271;28;20273;-64
2023/01/12 11:23:23;;;;;;;15.50;9.02;;;4.90;99.90;;;;;;5071210;28;20133;-64
2023/01/12 11:25:52;;;;;;;14.60;7.70;;;4.80;99.90;;;;;;5061654;28;20492;-64
2023/01/12 11:28:29;;;;;;;14.10;8.77;;;4.90;99.90;;;;;;5070824;28;20090;-64
2023/01/12 11:31:20;;;;;;;15.40;8.32;;;4.90;99.90;;;;;;5070993;28;20090;-64
2023/01/12 11:33:53;;;;;;;15.68;8.70;;;4.90;99.90;;;;;;5063766;28;20053;-64
2023/01/12 11:36:48;;;;;;;14.10;7.70;;;5.00;99.90;;;;;;5071165;28;20070;-64
2023/01/12 11:39:22;;;;;;;12.25;7.78;;;5.10;99.90;;;;;;5057547;28;20109;-64
2023/01/12 11:44:52;;;;;;;15.30;7.97;;;5.10;99.90;;;;;;5064020;28;20106;-64
2023/01/12 11:47:26;;;;;;;13.75;7.82;;;5.30;99.90;;;;;;5070395;28;20110;-64
2023/01/12 11:50:19;;;;;;;13.27;7.03;;;5.40;99.90;;;;;;5070686;28;20131;-64
2023/01/12 11:52:46;;;;;;;12.85;7.00;;;5.30;99.90;;;;;;5059554;28;20036;-64
2023/01/12 11:55:27;;;;;;;12.40;6.72;;;5.50;99.90;;;;;;5069581;28;20032;-64
2023/01/12 11:58:17;;;;;;;9.45;6.68;;;5.60;99.90;;;;;;5070311;28;20048;-64
2023/01/12 12:01:19;;;;;;;14.25;7.63;;;5.60;99.90;;;;;;5044126;28;20102;-64
2023/01/12 12:03:58;;;;;;;11.52;6.53;;;5.70;99.90;;;;;;5070586;28;20033;-64
2023/01/12 12:06:39;;;;;;;10.43;6.28;;;5.80;99.90;;;;;;5062047;28;20098;-64
2023/01/12 12:09:17;;;;;;;10.55;6.03;;;5.70;99.90;;;;;;5070482;28;20029;-64
2023/01/12 12:11:58;;;;;;;10.73;5.90;;;5.90;99.90;;;;;;5070157;28;20052;-64
2023/01/12 12:14:46;;;;;;;12.15;7.50;;;5.90;99.90;;;;;;5056833;28;20060;-64
2023/01/12 12:17:33;;;;;;;14.98;6.93;;;5.90;99.90;;;;;;5042729;28;20464;-64
2023/01/12 12:20:19;;;;;;;10.40;6.72;;;6.10;99.90;;;;;;5047005;28;20057;-64
2023/01/12 12:22:59;;;;;;;14.70;7.40;;;6.20;99.90;;;;;;5057193;28;20044;-64
2023/01/12 12:25:41;;;;;;;11.93;5.88;;;6.20;99.90;;;;;;5069106;28;20094;-64
2023/01/12 12:28:24;;;;;;;11.57;6.40;;;6.20;99.90;;;;;;5070568;28;20113;-64
2023/01/12 12:31:05;;;;;;;11.05;5.68;;;6.20;99.90;;;;;;5042462;28;20087;-64
2023/01/12 12:33:41;;;;;;;9.52;5.63;;;6.30;99.90;;;;;;5050475;28;20086;-64
2023/01/12 12:36:11;;;;;;;12.60;5.63;;;6.20;99.90;;;;;;5049589;28;20106;-64
2023/01/12 12:38:37;;;;;;;12.02;6.00;;;6.20;99.90;;;;;;5046119;28;20053;-64
2023/01/12 12:47:55;;;;;;;9.90;6.22;;;6.20;99.90;;;;;;5057354;28;20040;-64
2023/01/12 12:50:45;;;;;;;11.38;6.15;;;6.30;99.90;;;;;;5069606;28;20082;-64
2023/01/12 12:53:45;;;;;;;11.43;6.07;;;6.40;99.90;;;;;;5069833;28;20094;-64
2023/01/12 12:56:15;;;;;;;11.05;5.82;;;6.40;99.90;;;;;;5048222;28;20122;-64
2023/01/12 12:58:45;;;;;;;12.18;5.55;;;6.40;99.90;;;;;;5046355;28;20033;-64
2023/01/12 13:01:24;;;;;;;9.52;5.47;;;6.30;99.90;;;;;;5052892;28;20053;-64
2023/01/12 13:03:53;;;;;;;10.63;5.53;;;6.30;99.90;;;;;;5063315;28;20094;-64
2023/01/12 13:06:45;;;;;;;10.55;5.93;;;6.30;99.90;;;;;;5073580;28;20056;-64
2023/01/12 13:09:12;;;;;;;11.27;5.55;;;6.30;99.90;;;;;;5072409;28;20056;-64
2023/01/12 13:11:52;;;;;;;10.23;5.90;;;6.30;99.90;;;;;;5041712;28;20042;-64
2023/01/12 13:14:20;;;;;;;9.20;6.10;;;6.40;99.90;;;;;;5052551;28;20390;-64
2023/01/12 13:16:50;;;;;;;11.20;6.18;;;6.40;99.90;;;;;;5049723;28;20056;-64
2023/01/12 13:19:40;;;;;;;12.48;6.50;;;6.50;99.90;;;;;;5069470;28;20045;-64
2023/01/12 13:22:27;;;;;;;11.25;6.43;;;6.50;99.90;;;;;;5061949;28;20049;-65
2023/01/12 13:24:56;;;;;;;12.95;6.38;;;6.60;99.90;;;;;;5063167;28;20045;-65
2023/01/12 13:28:08;;;;;;;11.02;5.97;;;6.70;99.90;;;;;;5072535;28;20044;-62
2023/01/12 13:30:57;;;;;;;12.82;6.22;;;6.60;99.90;;;;;;5071845;28;20044;-65
2023/01/12 13:33:28;;;;;;;10.00;5.30;;;6.20;99.90;;;;;;5033175;28;20049;-64
2023/01/12 13:36:00;;;;;;;9.75;5.28;;;6.20;99.90;;;;;;5033316;28;20099;-63
2023/01/12 13:38:33;;;;;;;10.25;5.70;;;6.10;99.90;;;;;;5033312;28;20056;-63
2023/01/12 13:41:16;;;;;;;8.98;4.60;;;6.00;99.90;;;;;;5033549;28;20049;-63
2023/01/12 13:43:53;;;;;;;8.02;5.18;;;5.90;99.90;;;;;;5063650;28;20094;-62
2023/01/12 13:46:25;;;;;;;11.23;5.73;;;5.90;99.90;;;;;;5073321;28;20094;-63
2023/01/12 13:48:54;;;;;;;12.85;5.93;;;6.00;99.90;;;;;;5073304;28;20115;-63
2023/01/12 13:51:25;;;;;;;9.68;5.03;;;6.20;99.90;;;;;;5066226;28;20045;-65
2023/01/12 13:54:04;;;;;;;8.73;5.30;;;6.20;99.90;;;;;;5050414;28;20485;-63
2023/01/12 13:56:31;;;;;;;9.63;5.78;;;6.30;99.90;;;;;;5073246;28;20119;-62
2023/01/12 13:59:03;;;;;;;11.43;5.80;;;6.40;99.90;;;;;;5072378;28;20098;-64